sensor_id;sensor_type;location;lat;lon;timestamp;temperature;humidity
42841;DHT22;28491;46.898;7.660;2023-04-30T00:01:33;11.10;66.00
42841;DHT22;28491;46.898;7.660;2023-04-30T00:03:58;11.10;65.30
42841;DHT22;28491;46.898;7.660;2023-04-30T00:06:24;11.20;64.30
42841;DHT22;28491;46.898;7.660;2023-04-30T00:08:49;10.90;64.90
42841;DHT22;28491;46.898;7.660;2023-04-30T00:11:15;10.90;65.10
42841;DHT22;28491;46.898;7.660;2023-04-30T00:13:40;11.00;65.60
42841;DHT22;28491;46.898;7.660;2023-04-30T00:16:07;11.00;64.70
42841;DHT22;28491;46.898;7.660;2023-04-30T00:18:32;11.00;63.60
42841;DHT22;28491;46.898;7.660;2023-04-30T00:20:58;10.80;63.70
42841;DHT22;28491;46.898;7.660;2023-04-30T00:23:23;10.80;65.80
42841;DHT22;28491;46.898;7.660;2023-04-30T00:25:49;10.60;66.40
42841;DHT22;28491;46.898;7.660;2023-04-30T00:28:14;10.70;66.20
42841;DHT22;28491;46.898;7.660;2023-04-30T00:30:40;10.70;66.30
42841;DHT22;28491;46.898;7.660;2023-04-30T00:33:05;10.70;66.50
42841;DHT22;28491;46.898;7.660;2023-04-30T00:35:31;10.60;66.70
42841;DHT22;28491;46.898;7.660;2023-04-30T00:37:56;10.60;65.90
42841;DHT22;28491;46.898;7.660;2023-04-30T00:40:22;10.70;66.40
42841;DHT22;28491;46.898;7.660;2023-04-30T00:42:47;10.60;65.70
42841;DHT22;28491;46.898;7.660;2023-04-30T00:45:13;10.60;66.20
42841;DHT22;28491;46.898;7.660;2023-04-30T00:47:39;10.70;65.60
42841;DHT22;28491;46.898;7.660;2023-04-30T00:50:05;10.80;64.30
42841;DHT22;28491;46.898;7.660;2023-04-30T00:52:31;10.80;63.10
42841;DHT22;28491;46.898;7.660;2023-04-30T00:54:56;10.80;63.90
42841;DHT22;28491;46.898;7.660;2023-04-30T00:57:22;10.70;64.30
42841;DHT22;28491;46.898;7.660;2023-04-30T00:59:49;10.70;64.00
42841;DHT22;28491;46.898;7.660;2023-04-30T01:02:16;10.70;63.80
42841;DHT22;28491;46.898;7.660;2023-04-30T01:04:42;10.70;63.70
42841;DHT22;28491;46.898;7.660;2023-04-30T01:07:08;10.60;64.60
42841;DHT22;28491;46.898;7.660;2023-04-30T01:09:33;10.50;65.30
42841;DHT22;28491;46.898;7.660;2023-04-30T01:12:12;10.50;65.70
42841;DHT22;28491;46.898;7.660;2023-04-30T01:14:49;10.40;66.40
42841;DHT22;28491;46.898;7.660;2023-04-30T01:17:28;10.40;66.30
42841;DHT22;28491;46.898;7.660;2023-04-30T01:19:56;10.40;66.50
42841;DHT22;28491;46.898;7.660;2023-04-30T01:27:53;10.40;65.10
42841;DHT22;28491;46.898;7.660;2023-04-30T01:30:26;10.50;65.10
42841;DHT22;28491;46.898;7.660;2023-04-30T01:32:51;10.40;65.50
42841;DHT22;28491;46.898;7.660;2023-04-30T01:35:17;10.30;65.70
42841;DHT22;28491;46.898;7.660;2023-04-30T01:38:04;10.30;65.90
42841;DHT22;28491;46.898;7.660;2023-04-30T01:40:47;10.20;65.50
42841;DHT22;28491;46.898;7.660;2023-04-30T01:46:29;10.20;66.30
42841;DHT22;28491;46.898;7.660;2023-04-30T01:51:42;10.10;67.40
42841;DHT22;28491;46.898;7.660;2023-04-30T01:54:28;10.10;66.30
42841;DHT22;28491;46.898;7.660;2023-04-30T01:57:06;10.20;64.80
42841;DHT22;28491;46.898;7.660;2023-04-30T01:59:34;9.80;64.60
42841;DHT22;28491;46.898;7.660;2023-04-30T02:02:00;9.90;66.20
42841;DHT22;28491;46.898;7.660;2023-04-30T02:04:25;9.70;67.20
42841;DHT22;28491;46.898;7.660;2023-04-30T02:06:51;9.60;69.00
42841;DHT22;28491;46.898;7.660;2023-04-30T02:09:16;9.60;69.80
42841;DHT22;28491;46.898;7.660;2023-04-30T02:11:42;9.60;70.00
42841;DHT22;28491;46.898;7.660;2023-04-30T02:14:08;9.50;70.90
42841;DHT22;28491;46.898;7.660;2023-04-30T02:16:34;9.50;70.80
42841;DHT22;28491;46.898;7.660;2023-04-30T02:19:00;9.50;70.90
42841;DHT22;28491;46.898;7.660;2023-04-30T02:21:25;9.40;70.60
42841;DHT22;28491;46.898;7.660;2023-04-30T02:23:51;9.40;71.30
42841;DHT22;28491;46.898;7.660;2023-04-30T02:26:17;9.40;71.40
42841;DHT22;28491;46.898;7.660;2023-04-30T02:28:42;9.40;70.70
42841;DHT22;28491;46.898;7.660;2023-04-30T02:31:08;9.30;70.90
42841;DHT22;28491;46.898;7.660;2023-04-30T02:33:33;9.30;72.20
42841;DHT22;28491;46.898;7.660;2023-04-30T02:35:59;9.30;72.30
42841;DHT22;28491;46.898;7.660;2023-04-30T02:38:25;9.20;71.40
42841;DHT22;28491;46.898;7.660;2023-04-30T02:40:50;9.10;72.70
42841;DHT22;28491;46.898;7.660;2023-04-30T02:43:16;9.10;73.40
42841;DHT22;28491;46.898;7.660;2023-04-30T02:45:41;9.10;73.90
42841;DHT22;28491;46.898;7.660;2023-04-30T02:48:07;9.20;74.60
42841;DHT22;28491;46.898;7.660;2023-04-30T02:50:32;9.20;73.50
42841;DHT22;28491;46.898;7.660;2023-04-30T02:52:58;9.10;73.20
42841;DHT22;28491;46.898;7.660;2023-04-30T02:55:24;9.10;75.50
42841;DHT22;28491;46.898;7.660;2023-04-30T02:57:49;9.10;73.50
42841;DHT22;28491;46.898;7.660;2023-04-30T03:00:15;9.10;73.70
42841;DHT22;28491;46.898;7.660;2023-04-30T03:02:42;8.90;74.60
42841;DHT22;28491;46.898;7.660;2023-04-30T03:05:07;8.90;76.00
42841;DHT22;28491;46.898;7.660;2023-04-30T03:07:33;9.00;76.20
42841;DHT22;28491;46.898;7.660;2023-04-30T03:09:58;8.90;75.00
42841;DHT22;28491;46.898;7.660;2023-04-30T03:12:24;8.90;75.70
42841;DHT22;28491;46.898;7.660;2023-04-30T03:14:50;9.00;74.30
42841;DHT22;28491;46.898;7.660;2023-04-30T03:17:16;8.90;73.00
42841;DHT22;28491;46.898;7.660;2023-04-30T03:19:42;8.90;72.70
42841;DHT22;28491;46.898;7.660;2023-04-30T03:22:07;8.80;74.10
42841;DHT22;28491;46.898;7.660;2023-04-30T03:24:33;8.80;75.80
42841;DHT22;28491;46.898;7.660;2023-04-30T03:26:58;8.70;75.50
42841;DHT22;28491;46.898;7.660;2023-04-30T03:29:24;8.50;77.10
42841;DHT22;28491;46.898;7.660;2023-04-30T03:31:49;8.60;79.40
42841;DHT22;28491;46.898;7.660;2023-04-30T03:34:15;8.60;80.60
42841;DHT22;28491;46.898;7.660;2023-04-30T03:36:41;8.70;80.30
42841;DHT22;28491;46.898;7.660;2023-04-30T03:39:06;8.70;78.60
42841;DHT22;28491;46.898;7.660;2023-04-30T03:41:34;8.80;76.40
42841;DHT22;28491;46.898;7.660;2023-04-30T03:43:59;8.60;75.80
42841;DHT22;28491;46.898;7.660;2023-04-30T03:46:25;8.60;76.40
42841;DHT22;28491;46.898;7.660;2023-04-30T03:48:50;8.60;76.30
42841;DHT22;28491;46.898;7.660;2023-04-30T03:51:18;8.50;78.20
42841;DHT22;28491;46.898;7.660;2023-04-30T03:53:44;8.50;78.70
42841;DHT22;28491;46.898;7.660;2023-04-30T03:56:10;8.40;79.70
42841;DHT22;28491;46.898;7.660;2023-04-30T03:58:36;8.30;81.30
42841;DHT22;28491;46.898;7.660;2023-04-30T04:01:02;8.20;82.70
42841;DHT22;28491;46.898;7.660;2023-04-30T04:03:28;8.20;81.90
42841;DHT22;28491;46.898;7.660;2023-04-30T04:05:53;8.20;85.70
42841;DHT22;28491;46.898;7.660;2023-04-30T04:08:19;8.30;90.40
42841;DHT22;28491;46.898;7.660;2023-04-30T04:10:44;8.30;90.00
42841;DHT22;28491;46.898;7.660;2023-04-30T04:13:10;8.40;90.10
42841;DHT22;28491;46.898;7.660;2023-04-30T04:15:35;8.40;89.00
42841;DHT22;28491;46.898;7.660;2023-04-30T04:18:01;8.40;88.60
42841;DHT22;28491;46.898;7.660;2023-04-30T04:20:27;8.40;88.40
42841;DHT22;28491;46.898;7.660;2023-04-30T04:22:54;8.40;87.60
42841;DHT22;28491;46.898;7.660;2023-04-30T04:25:20;8.40;90.10
42841;DHT22;28491;46.898;7.660;2023-04-30T04:27:50;8.40;89.60
42841;DHT22;28491;46.898;7.660;2023-04-30T04:30:16;8.50;90.00
42841;DHT22;28491;46.898;7.660;2023-04-30T04:32:42;8.50;87.30
42841;DHT22;28491;46.898;7.660;2023-04-30T04:35:14;8.50;86.70
42841;DHT22;28491;46.898;7.660;2023-04-30T04:37:39;8.40;89.30
42841;DHT22;28491;46.898;7.660;2023-04-30T04:40:06;8.50;90.50
42841;DHT22;28491;46.898;7.660;2023-04-30T04:42:32;8.50;90.80
42841;DHT22;28491;46.898;7.660;2023-04-30T04:44:57;8.50;90.50
42841;DHT22;28491;46.898;7.660;2023-04-30T04:47:23;8.60;90.30
42841;DHT22;28491;46.898;7.660;2023-04-30T04:49:48;8.70;90.00
42841;DHT22;28491;46.898;7.660;2023-04-30T04:52:14;8.70;88.80
42841;DHT22;28491;46.898;7.660;2023-04-30T04:54:39;8.80;89.20
42841;DHT22;28491;46.898;7.660;2023-04-30T04:57:05;8.80;89.30
42841;DHT22;28491;46.898;7.660;2023-04-30T04:59:30;8.90;90.00
42841;DHT22;28491;46.898;7.660;2023-04-30T05:01:56;9.00;89.20
42841;DHT22;28491;46.898;7.660;2023-04-30T05:04:21;9.10;86.30
42841;DHT22;28491;46.898;7.660;2023-04-30T05:06:47;9.10;84.70
42841;DHT22;28491;46.898;7.660;2023-04-30T05:09:13;9.20;84.80
42841;DHT22;28491;46.898;7.660;2023-04-30T05:11:38;9.20;82.10
42841;DHT22;28491;46.898;7.660;2023-04-30T05:14:05;9.40;83.40
42841;DHT22;28491;46.898;7.660;2023-04-30T05:16:31;9.30;80.90
42841;DHT22;28491;46.898;7.660;2023-04-30T05:18:57;9.30;82.40
42841;DHT22;28491;46.898;7.660;2023-04-30T05:21:22;9.30;82.60
42841;DHT22;28491;46.898;7.660;2023-04-30T05:23:50;9.50;83.60
42841;DHT22;28491;46.898;7.660;2023-04-30T05:26:15;9.60;85.10
42841;DHT22;28491;46.898;7.660;2023-04-30T05:28:41;9.90;85.10
42841;DHT22;28491;46.898;7.660;2023-04-30T05:31:06;10.10;83.20
42841;DHT22;28491;46.898;7.660;2023-04-30T05:33:32;10.20;80.50
42841;DHT22;28491;46.898;7.660;2023-04-30T05:35:58;10.30;77.50
42841;DHT22;28491;46.898;7.660;2023-04-30T05:38:23;10.30;73.60
42841;DHT22;28491;46.898;7.660;2023-04-30T05:40:49;10.40;73.40
42841;DHT22;28491;46.898;7.660;2023-04-30T05:43:15;10.50;73.20
42841;DHT22;28491;46.898;7.660;2023-04-30T05:45:40;10.60;72.90
42841;DHT22;28491;46.898;7.660;2023-04-30T05:48:06;10.60;71.60
42841;DHT22;28491;46.898;7.660;2023-04-30T05:50:31;10.60;70.30
42841;DHT22;28491;46.898;7.660;2023-04-30T05:52:57;10.60;73.60
42841;DHT22;28491;46.898;7.660;2023-04-30T05:55:22;10.60;75.50
42841;DHT22;28491;46.898;7.660;2023-04-30T05:57:48;10.50;74.50
42841;DHT22;28491;46.898;7.660;2023-04-30T06:00:13;10.50;76.90
42841;DHT22;28491;46.898;7.660;2023-04-30T06:02:40;10.50;79.10
42841;DHT22;28491;46.898;7.660;2023-04-30T06:05:07;10.60;80.40
42841;DHT22;28491;46.898;7.660;2023-04-30T06:07:33;10.60;80.10
42841;DHT22;28491;46.898;7.660;2023-04-30T06:09:58;10.60;79.90
42841;DHT22;28491;46.898;7.660;2023-04-30T06:12:24;10.50;76.20
42841;DHT22;28491;46.898;7.660;2023-04-30T06:14:50;10.60;77.40
42841;DHT22;28491;46.898;7.660;2023-04-30T06:17:16;10.60;76.50
42841;DHT22;28491;46.898;7.660;2023-04-30T06:19:42;10.50;76.70
42841;DHT22;28491;46.898;7.660;2023-04-30T06:22:07;10.50;78.40
42841;DHT22;28491;46.898;7.660;2023-04-30T06:24:33;10.60;78.90
42841;DHT22;28491;46.898;7.660;2023-04-30T06:26:58;10.60;77.40
42841;DHT22;28491;46.898;7.660;2023-04-30T06:29:24;10.70;76.60
42841;DHT22;28491;46.898;7.660;2023-04-30T06:31:50;10.70;76.30
42841;DHT22;28491;46.898;7.660;2023-04-30T06:34:16;10.90;79.60
42841;DHT22;28491;46.898;7.660;2023-04-30T06:36:41;11.00;80.60
42841;DHT22;28491;46.898;7.660;2023-04-30T06:39:07;11.20;77.40
42841;DHT22;28491;46.898;7.660;2023-04-30T06:41:32;11.40;74.60
42841;DHT22;28491;46.898;7.660;2023-04-30T06:43:58;11.50;72.40
42841;DHT22;28491;46.898;7.660;2023-04-30T06:46:23;11.70;72.40
42841;DHT22;28491;46.898;7.660;2023-04-30T06:48:49;11.80;67.80
42841;DHT22;28491;46.898;7.660;2023-04-30T06:51:15;12.00;68.30
42841;DHT22;28491;46.898;7.660;2023-04-30T06:53:40;12.20;67.90
42841;DHT22;28491;46.898;7.660;2023-04-30T06:56:06;12.40;61.00
42841;DHT22;28491;46.898;7.660;2023-04-30T06:58:31;12.50;55.90
42841;DHT22;28491;46.898;7.660;2023-04-30T07:00:57;12.50;45.90
42841;DHT22;28491;46.898;7.660;2023-04-30T07:03:22;12.50;53.80
42841;DHT22;28491;46.898;7.660;2023-04-30T07:05:48;12.50;36.20
42841;DHT22;28491;46.898;7.660;2023-04-30T07:08:13;12.50;42.90
42841;DHT22;28491;46.898;7.660;2023-04-30T07:10:39;12.50;46.00
42841;DHT22;28491;46.898;7.660;2023-04-30T07:13:05;12.60;28.70
42841;DHT22;28491;46.898;7.660;2023-04-30T07:15:32;12.70;25.70
42841;DHT22;28491;46.898;7.660;2023-04-30T07:17:58;12.70;25.50
42841;DHT22;28491;46.898;7.660;2023-04-30T07:20:23;12.70;31.70
42841;DHT22;28491;46.898;7.660;2023-04-30T07:22:49;13.00;34.30
42841;DHT22;28491;46.898;7.660;2023-04-30T07:25:15;13.40;17.50
42841;DHT22;28491;46.898;7.660;2023-04-30T07:27:40;13.60;12.00
42841;DHT22;28491;46.898;7.660;2023-04-30T07:30:06;13.70;10.90
42841;DHT22;28491;46.898;7.660;2023-04-30T07:32:36;13.50;17.80
42841;DHT22;28491;46.898;7.660;2023-04-30T07:35:02;13.60;15.40
42841;DHT22;28491;46.898;7.660;2023-04-30T07:37:28;13.70;9.60
42841;DHT22;28491;46.898;7.660;2023-04-30T07:39:53;13.70;12.80
42841;DHT22;28491;46.898;7.660;2023-04-30T07:42:19;13.50;11.90
42841;DHT22;28491;46.898;7.660;2023-04-30T07:44:44;13.30;16.50
42841;DHT22;28491;46.898;7.660;2023-04-30T07:47:10;13.30;15.40
42841;DHT22;28491;46.898;7.660;2023-04-30T07:49:36;13.40;14.10
42841;DHT22;28491;46.898;7.660;2023-04-30T07:52:01;13.70;12.60
42841;DHT22;28491;46.898;7.660;2023-04-30T07:54:28;14.40;16.90
42841;DHT22;28491;46.898;7.660;2023-04-30T07:56:53;15.00;1.00
42841;DHT22;28491;46.898;7.660;2023-04-30T07:59:19;15.20;1.00
42841;DHT22;28491;46.898;7.660;2023-04-30T08:01:46;15.60;1.00
42841;DHT22;28491;46.898;7.660;2023-04-30T08:04:11;15.90;1.00
42841;DHT22;28491;46.898;7.660;2023-04-30T08:06:37;16.00;1.00
42841;DHT22;28491;46.898;7.660;2023-04-30T08:09:02;15.80;1.00
42841;DHT22;28491;46.898;7.660;2023-04-30T08:11:28;15.40;1.00
42841;DHT22;28491;46.898;7.660;2023-04-30T08:13:54;16.20;1.00
42841;DHT22;28491;46.898;7.660;2023-04-30T08:16:19;16.90;1.00
42841;DHT22;28491;46.898;7.660;2023-04-30T08:18:45;18.10;1.00
42841;DHT22;28491;46.898;7.660;2023-04-30T08:21:14;18.00;1.00
42841;DHT22;28491;46.898;7.660;2023-04-30T08:23:40;18.30;1.00
42841;DHT22;28491;46.898;7.660;2023-04-30T08:26:06;18.00;1.00
42841;DHT22;28491;46.898;7.660;2023-04-30T08:28:31;17.70;1.00
42841;DHT22;28491;46.898;7.660;2023-04-30T08:30:57;17.70;1.00
42841;DHT22;28491;46.898;7.660;2023-04-30T08:33:22;17.50;1.00
42841;DHT22;28491;46.898;7.660;2023-04-30T08:35:48;17.90;1.00
42841;DHT22;28491;46.898;7.660;2023-04-30T08:38:13;17.90;1.00
42841;DHT22;28491;46.898;7.660;2023-04-30T08:40:39;18.50;1.00
42841;DHT22;28491;46.898;7.660;2023-04-30T08:43:07;18.80;1.00
42841;DHT22;28491;46.898;7.660;2023-04-30T08:45:33;18.80;1.00
42841;DHT22;28491;46.898;7.660;2023-04-30T08:48:00;18.10;1.00
42841;DHT22;28491;46.898;7.660;2023-04-30T08:50:30;17.30;1.00
42841;DHT22;28491;46.898;7.660;2023-04-30T08:52:57;17.10;1.00
42841;DHT22;28491;46.898;7.660;2023-04-30T08:55:25;17.10;1.00
42841;DHT22;28491;46.898;7.660;2023-04-30T08:57:51;17.00;1.00
42841;DHT22;28491;46.898;7.660;2023-04-30T09:00:17;17.30;1.00
42841;DHT22;28491;46.898;7.660;2023-04-30T09:02:43;16.90;1.00
42841;DHT22;28491;46.898;7.660;2023-04-30T09:05:13;16.40;1.00
42841;DHT22;28491;46.898;7.660;2023-04-30T09:07:41;15.90;1.00
42841;DHT22;28491;46.898;7.660;2023-04-30T09:10:17;15.50;1.00
42841;DHT22;28491;46.898;7.660;2023-04-30T09:12:44;15.00;1.00
42841;DHT22;28491;46.898;7.660;2023-04-30T09:15:22;15.00;1.00
42841;DHT22;28491;46.898;7.660;2023-04-30T09:17:48;15.10;1.00
42841;DHT22;28491;46.898;7.660;2023-04-30T09:20:13;15.00;1.00
42841;DHT22;28491;46.898;7.660;2023-04-30T09:22:40;15.00;1.00
42841;DHT22;28491;46.898;7.660;2023-04-30T09:25:07;15.00;1.00
42841;DHT22;28491;46.898;7.660;2023-04-30T09:27:33;15.10;1.00
42841;DHT22;28491;46.898;7.660;2023-04-30T09:29:58;15.10;1.00
42841;DHT22;28491;46.898;7.660;2023-04-30T09:32:25;15.10;1.00
42841;DHT22;28491;46.898;7.660;2023-04-30T09:34:50;15.30;1.00
42841;DHT22;28491;46.898;7.660;2023-04-30T09:37:16;15.40;1.00
42841;DHT22;28491;46.898;7.660;2023-04-30T09:39:49;15.30;1.00
42841;DHT22;28491;46.898;7.660;2023-04-30T09:42:15;15.20;1.00
42841;DHT22;28491;46.898;7.660;2023-04-30T09:44:41;15.30;1.00
42841;DHT22;28491;46.898;7.660;2023-04-30T09:47:12;15.40;1.00
42841;DHT22;28491;46.898;7.660;2023-04-30T09:49:40;15.40;1.00
42841;DHT22;28491;46.898;7.660;2023-04-30T09:52:07;15.30;1.00
42841;DHT22;28491;46.898;7.660;2023-04-30T09:54:33;15.20;1.00
42841;DHT22;28491;46.898;7.660;2023-04-30T09:57:01;15.40;1.00
42841;DHT22;28491;46.898;7.660;2023-04-30T09:59:30;15.50;1.00
42841;DHT22;28491;46.898;7.660;2023-04-30T10:01:58;15.50;1.00
42841;DHT22;28491;46.898;7.660;2023-04-30T10:04:25;15.40;1.00
42841;DHT22;28491;46.898;7.660;2023-04-30T10:06:52;15.50;1.00
42841;DHT22;28491;46.898;7.660;2023-04-30T10:09:19;15.60;1.00
42841;DHT22;28491;46.898;7.660;2023-04-30T10:11:45;15.70;1.00
42841;DHT22;28491;46.898;7.660;2023-04-30T10:14:13;15.50;1.00
42841;DHT22;28491;46.898;7.660;2023-04-30T10:16:53;15.50;1.00
42841;DHT22;28491;46.898;7.660;2023-04-30T10:19:23;15.60;1.00
42841;DHT22;28491;46.898;7.660;2023-04-30T10:21:49;15.80;1.00
42841;DHT22;28491;46.898;7.660;2023-04-30T10:24:16;16.00;1.00
42841;DHT22;28491;46.898;7.660;2023-04-30T10:26:44;16.10;1.00
42841;DHT22;28491;46.898;7.660;2023-04-30T10:29:12;16.10;1.00
42841;DHT22;28491;46.898;7.660;2023-04-30T10:31:39;16.00;1.00
42841;DHT22;28491;46.898;7.660;2023-04-30T10:34:20;15.90;1.00
42841;DHT22;28491;46.898;7.660;2023-04-30T10:36:49;15.70;1.00
42841;DHT22;28491;46.898;7.660;2023-04-30T10:39:20;15.70;1.00
42841;DHT22;28491;46.898;7.660;2023-04-30T10:41:46;15.60;1.00
42841;DHT22;28491;46.898;7.660;2023-04-30T10:44:13;15.20;1.00
42841;DHT22;28491;46.898;7.660;2023-04-30T10:46:39;15.40;1.00
42841;DHT22;28491;46.898;7.660;2023-04-30T10:49:05;15.50;1.00
42841;DHT22;28491;46.898;7.660;2023-04-30T10:51:48;15.80;1.00
42841;DHT22;28491;46.898;7.660;2023-04-30T10:54:15;15.70;1.00
42841;DHT22;28491;46.898;7.660;2023-04-30T10:56:44;15.50;1.00
42841;DHT22;28491;46.898;7.660;2023-04-30T10:59:10;15.40;1.00
42841;DHT22;28491;46.898;7.660;2023-04-30T11:02:06;15.20;1.00
42841;DHT22;28491;46.898;7.660;2023-04-30T11:05:28;15.00;1.00
42841;DHT22;28491;46.898;7.660;2023-04-30T11:07:59;15.20;1.00
42841;DHT22;28491;46.898;7.660;2023-04-30T11:10:26;15.20;1.00
42841;DHT22;28491;46.898;7.660;2023-04-30T11:12:54;15.00;1.00
42841;DHT22;28491;46.898;7.660;2023-04-30T11:15:32;14.90;1.00
42841;DHT22;28491;46.898;7.660;2023-04-30T11:17:58;14.90;1.00
42841;DHT22;28491;46.898;7.660;2023-04-30T11:20:26;14.90;1.00
42841;DHT22;28491;46.898;7.660;2023-04-30T11:23:11;14.60;1.00
42841;DHT22;28491;46.898;7.660;2023-04-30T11:25:45;14.60;1.00
42841;DHT22;28491;46.898;7.660;2023-04-30T11:28:16;14.50;1.00
42841;DHT22;28491;46.898;7.660;2023-04-30T11:30:53;14.50;1.00
42841;DHT22;28491;46.898;7.660;2023-04-30T11:33:20;14.50;1.00
42841;DHT22;28491;46.898;7.660;2023-04-30T11:35:47;14.50;1.00
42841;DHT22;28491;46.898;7.660;2023-04-30T11:38:14;14.50;1.00
42841;DHT22;28491;46.898;7.660;2023-04-30T11:40:41;14.30;1.00
42841;DHT22;28491;46.898;7.660;2023-04-30T11:43:20;14.30;1.00
42841;DHT22;28491;46.898;7.660;2023-04-30T11:46:18;14.40;1.00
42841;DHT22;28491;46.898;7.660;2023-04-30T11:48:44;14.40;1.00
42841;DHT22;28491;46.898;7.660;2023-04-30T11:51:21;14.40;1.00
42841;DHT22;28491;46.898;7.660;2023-04-30T11:53:48;14.50;1.00
42841;DHT22;28491;46.898;7.660;2023-04-30T11:56:32;14.50;1.00
42841;DHT22;28491;46.898;7.660;2023-04-30T11:59:09;14.50;1.00
42841;DHT22;28491;46.898;7.660;2023-04-30T12:01:35;14.30;1.00
42841;DHT22;28491;46.898;7.660;2023-04-30T12:04:01;14.30;1.00
42841;DHT22;28491;46.898;7.660;2023-04-30T12:06:30;14.30;1.00
42841;DHT22;28491;46.898;7.660;2023-04-30T12:08:58;14.50;2.20
42841;DHT22;28491;46.898;7.660;2023-04-30T12:11:28;14.40;1.00
42841;DHT22;28491;46.898;7.660;2023-04-30T12:13:55;14.30;1.00
42841;DHT22;28491;46.898;7.660;2023-04-30T12:16:26;14.30;1.00
42841;DHT22;28491;46.898;7.660;2023-04-30T12:18:52;14.30;1.00
42841;DHT22;28491;46.898;7.660;2023-04-30T12:21:18;14.40;1.00
42841;DHT22;28491;46.898;7.660;2023-04-30T12:23:43;14.20;1.00
42841;DHT22;28491;46.898;7.660;2023-04-30T12:26:09;14.20;4.20
42841;DHT22;28491;46.898;7.660;2023-04-30T12:28:35;14.00;1.00
42841;DHT22;28491;46.898;7.660;2023-04-30T12:31:01;14.10;1.00
42841;DHT22;28491;46.898;7.660;2023-04-30T12:33:31;14.10;1.00
42841;DHT22;28491;46.898;7.660;2023-04-30T12:35:57;14.10;1.00
42841;DHT22;28491;46.898;7.660;2023-04-30T12:38:23;14.00;4.40
42841;DHT22;28491;46.898;7.660;2023-04-30T12:40:50;13.90;6.90
42841;DHT22;28491;46.898;7.660;2023-04-30T12:43:16;13.90;4.10
42841;DHT22;28491;46.898;7.660;2023-04-30T12:48:11;13.80;2.30
42841;DHT22;28491;46.898;7.660;2023-04-30T12:50:38;13.80;1.40
42841;DHT22;28491;46.898;7.660;2023-04-30T12:53:04;13.90;1.00
42841;DHT22;28491;46.898;7.660;2023-04-30T12:55:29;13.90;1.50
42841;DHT22;28491;46.898;7.660;2023-04-30T12:58:09;13.90;2.90
42841;DHT22;28491;46.898;7.660;2023-04-30T13:00:49;13.90;3.80
42841;DHT22;28491;46.898;7.660;2023-04-30T13:03:17;13.80;2.00
42841;DHT22;28491;46.898;7.660;2023-04-30T13:05:52;13.70;1.00
42841;DHT22;28491;46.898;7.660;2023-04-30T13:08:18;13.70;1.00
42841;DHT22;28491;46.898;7.660;2023-04-30T13:10:45;13.80;1.00
42841;DHT22;28491;46.898;7.660;2023-04-30T13:13:13;13.70;6.90
42841;DHT22;28491;46.898;7.660;2023-04-30T13:15:39;13.50;1.70
42841;DHT22;28491;46.898;7.660;2023-04-30T13:18:06;13.60;3.10
42841;DHT22;28491;46.898;7.660;2023-04-30T13:20:34;13.60;1.00
42841;DHT22;28491;46.898;7.660;2023-04-30T13:22:59;13.50;1.00
42841;DHT22;28491;46.898;7.660;2023-04-30T13:25:25;13.60;3.70
42841;DHT22;28491;46.898;7.660;2023-04-30T13:27:51;13.60;1.20
42841;DHT22;28491;46.898;7.660;2023-04-30T13:30:16;13.60;5.80
42841;DHT22;28491;46.898;7.660;2023-04-30T13:32:42;13.60;1.70
42841;DHT22;28491;46.898;7.660;2023-04-30T13:35:08;13.70;2.60
42841;DHT22;28491;46.898;7.660;2023-04-30T13:37:33;13.70;1.00
42841;DHT22;28491;46.898;7.660;2023-04-30T13:40:00;13.80;7.90
42841;DHT22;28491;46.898;7.660;2023-04-30T13:42:26;13.80;2.30
42841;DHT22;28491;46.898;7.660;2023-04-30T13:44:51;13.90;3.20
42841;DHT22;28491;46.898;7.660;2023-04-30T13:47:17;13.80;1.00
42841;DHT22;28491;46.898;7.660;2023-04-30T13:49:43;13.90;1.00
42841;DHT22;28491;46.898;7.660;2023-04-30T13:52:08;13.90;1.00
42841;DHT22;28491;46.898;7.660;2023-04-30T13:54:34;13.80;1.00
42841;DHT22;28491;46.898;7.660;2023-04-30T13:56:59;13.70;3.60
42841;DHT22;28491;46.898;7.660;2023-04-30T13:59:25;13.80;1.10
42841;DHT22;28491;46.898;7.660;2023-04-30T14:01:50;13.90;1.00
42841;DHT22;28491;46.898;7.660;2023-04-30T14:04:16;13.80;1.00
42841;DHT22;28491;46.898;7.660;2023-04-30T14:06:41;13.90;1.00
42841;DHT22;28491;46.898;7.660;2023-04-30T14:09:07;13.90;1.00
42841;DHT22;28491;46.898;7.660;2023-04-30T14:11:33;14.00;1.00
42841;DHT22;28491;46.898;7.660;2023-04-30T14:13:58;14.00;4.80
42841;DHT22;28491;46.898;7.660;2023-04-30T14:16:24;14.00;1.00
42841;DHT22;28491;46.898;7.660;2023-04-30T14:18:50;14.10;1.10
42841;DHT22;28491;46.898;7.660;2023-04-30T14:21:15;14.20;2.80
42841;DHT22;28491;46.898;7.660;2023-04-30T14:23:41;14.20;1.00
42841;DHT22;28491;46.898;7.660;2023-04-30T14:26:06;14.20;1.00
42841;DHT22;28491;46.898;7.660;2023-04-30T14:28:32;14.20;1.00
42841;DHT22;28491;46.898;7.660;2023-04-30T14:30:57;14.20;1.00
42841;DHT22;28491;46.898;7.660;2023-04-30T14:33:23;14.20;1.00
42841;DHT22;28491;46.898;7.660;2023-04-30T14:35:48;14.20;1.00
42841;DHT22;28491;46.898;7.660;2023-04-30T14:38:14;14.30;1.00
42841;DHT22;28491;46.898;7.660;2023-04-30T14:40:42;14.40;1.00
42841;DHT22;28491;46.898;7.660;2023-04-30T14:43:07;14.40;1.00
42841;DHT22;28491;46.898;7.660;2023-04-30T14:45:33;14.30;1.00
42841;DHT22;28491;46.898;7.660;2023-04-30T14:47:58;14.30;4.90
42841;DHT22;28491;46.898;7.660;2023-04-30T14:50:24;14.30;1.00
42841;DHT22;28491;46.898;7.660;2023-04-30T14:52:50;14.20;1.00
42841;DHT22;28491;46.898;7.660;2023-04-30T14:55:15;14.20;1.00
42841;DHT22;28491;46.898;7.660;2023-04-30T14:57:41;14.30;1.00
42841;DHT22;28491;46.898;7.660;2023-04-30T15:00:07;14.20;1.00
42841;DHT22;28491;46.898;7.660;2023-04-30T15:02:33;14.10;1.00
42841;DHT22;28491;46.898;7.660;2023-04-30T15:04:58;14.10;1.00
42841;DHT22;28491;46.898;7.660;2023-04-30T15:07:24;14.10;1.00
42841;DHT22;28491;46.898;7.660;2023-04-30T15:09:49;14.10;2.00
42841;DHT22;28491;46.898;7.660;2023-04-30T15:12:15;14.10;1.00
42841;DHT22;28491;46.898;7.660;2023-04-30T15:14:40;14.10;1.00
42841;DHT22;28491;46.898;7.660;2023-04-30T15:17:06;14.00;1.60
42841;DHT22;28491;46.898;7.660;2023-04-30T15:19:31;14.00;1.00
42841;DHT22;28491;46.898;7.660;2023-04-30T15:21:57;14.10;1.00
42841;DHT22;28491;46.898;7.660;2023-04-30T15:24:22;14.10;1.00
42841;DHT22;28491;46.898;7.660;2023-04-30T15:26:48;14.00;1.40
42841;DHT22;28491;46.898;7.660;2023-04-30T15:29:15;14.00;1.00
42841;DHT22;28491;46.898;7.660;2023-04-30T15:31:41;13.90;1.00
42841;DHT22;28491;46.898;7.660;2023-04-30T15:34:06;13.90;1.00
42841;DHT22;28491;46.898;7.660;2023-04-30T15:36:32;13.90;1.40
42841;DHT22;28491;46.898;7.660;2023-04-30T15:38:57;14.00;1.00
42841;DHT22;28491;46.898;7.660;2023-04-30T15:41:23;14.00;1.00
42841;DHT22;28491;46.898;7.660;2023-04-30T15:43:48;14.00;1.00
42841;DHT22;28491;46.898;7.660;2023-04-30T15:46:14;14.00;1.00
42841;DHT22;28491;46.898;7.660;2023-04-30T15:48:40;14.00;1.00
42841;DHT22;28491;46.898;7.660;2023-04-30T15:51:05;14.00;1.00
42841;DHT22;28491;46.898;7.660;2023-04-30T15:53:31;13.90;1.00
42841;DHT22;28491;46.898;7.660;2023-04-30T15:55:56;13.90;1.00